Time;durP1;ratioP1;P1;durP2;ratioP2;P2;SDS_P1;SDS_P2;PMS_P1;PMS_P2;Temp;Humidity;BMP_temperature;BMP_pressure;BME280_temperature;BME280_humidity;BME280_pressure;Samples;Min_cycle;Max_cycle;Signal;HPM_P1;HPM_P2
2023/08/27 00:01:58;;;;;;;3.47;0.55;;;18.90;99.90;;;;;;1956636;73;21135;-82
2023/08/27 00:04:50;;;;;;;1.12;0.65;;;18.80;99.90;;;;;;1956830;73;21117;-82
2023/08/27 00:07:41;;;;;;;1.22;0.37;;;18.70;99.90;;;;;;1957062;73;21126;-83
2023/08/27 00:10:33;;;;;;;0.93;0.53;;;18.70;99.90;;;;;;1957016;73;21183;-82
2023/08/27 00:13:24;;;;;;;1.98;0.55;;;18.70;99.90;;;;;;1957129;73;21200;-83
2023/08/27 00:16:16;;;;;;;1.40;0.40;;;18.80;99.90;;;;;;1957198;73;21086;-82
2023/08/27 00:19:07;;;;;;;2.77;0.80;;;18.80;99.90;;;;;;1956953;73;21161;-82
2023/08/27 00:21:59;;;;;;;1.67;0.70;;;18.80;99.90;;;;;;1957255;73;21114;-82
2023/08/27 00:24:51;;;;;;;4.55;0.62;;;18.90;99.90;;;;;;1957319;73;21063;-82
2023/08/27 00:27:42;;;;;;;2.77;0.60;;;18.80;99.90;;;;;;1960582;73;21134;-83
2023/08/27 00:30:33;;;;;;;1.42;0.80;;;18.80;99.90;;;;;;1963772;73;21094;-82
2023/08/27 00:33:25;;;;;;;1.80;0.70;;;18.80;99.90;;;;;;1963889;73;21065;-82
2023/08/27 00:36:17;;;;;;;2.80;0.78;;;18.80;99.90;;;;;;1964100;73;21078;-82
2023/08/27 00:39:08;;;;;;;1.42;0.65;;;18.90;99.90;;;;;;1963992;73;21159;-83
2023/08/27 00:42:00;;;;;;;2.02;0.62;;;18.80;99.90;;;;;;1964104;73;21054;-82
2023/08/27 00:44:52;;;;;;;1.50;0.50;;;18.80;99.90;;;;;;1964034;73;21066;-83
2023/08/27 00:47:44;;;;;;;2.92;0.90;;;18.80;99.90;;;;;;1964007;73;21101;-83
2023/08/27 00:50:36;;;;;;;1.22;0.80;;;18.90;99.90;;;;;;1963889;73;21155;-83
2023/08/27 00:53:28;;;;;;;3.62;1.22;;;18.80;99.90;;;;;;1964009;73;21089;-83
2023/08/27 00:56:19;;;;;;;2.40;0.78;;;18.80;99.90;;;;;;1964047;73;21119;-83
2023/08/27 00:59:12;;;;;;;2.52;0.80;;;18.80;99.90;;;;;;1963977;73;21058;-82
2023/08/27 01:02:04;;;;;;;1.87;0.72;;;18.70;99.90;;;;;;1963979;73;21059;-83
2023/08/27 01:04:56;;;;;;;1.47;0.68;;;18.70;99.90;;;;;;1963671;73;21160;-83
2023/08/27 01:07:53;;;;;;;1.98;0.68;;;18.70;99.90;;;;;;1892521;76;21113;-83
2023/08/27 01:10:48;;;;;;;1.40;0.80;;;18.50;99.90;;;;;;1893080;76;21121;-83
2023/08/27 01:13:43;;;;;;;2.37;0.60;;;18.50;99.90;;;;;;1893042;76;21188;-83
2023/08/27 01:16:37;;;;;;;1.70;0.95;;;18.60;99.90;;;;;;1892571;76;21121;-82
2023/08/27 01:19:29;;;;;;;1.35;0.70;;;18.70;99.90;;;;;;1892593;76;21114;-82
2023/08/27 01:22:21;;;;;;;2.30;0.70;;;18.70;99.90;;;;;;1893068;76;21132;-82
2023/08/27 01:25:14;;;;;;;1.77;0.78;;;18.70;99.90;;;;;;1893165;76;21094;-82
2023/08/27 01:28:10;;;;;;;2.35;0.85;;;18.60;99.90;;;;;;1895160;75;21109;-82
2023/08/27 01:31:04;;;;;;;2.55;0.55;;;18.60;99.90;;;;;;1899605;75;21054;-82
2023/08/27 01:33:59;;;;;;;2.30;0.60;;;18.60;99.90;;;;;;1899671;75;21063;-82
2023/08/27 01:36:50;;;;;;;2.05;0.62;;;18.60;99.90;;;;;;1899564;75;21086;-82
2023/08/27 01:39:42;;;;;;;2.25;0.80;;;18.50;99.90;;;;;;1899471;75;21129;-82
2023/08/27 01:42:35;;;;;;;2.50;0.70;;;18.50;99.90;;;;;;1899351;75;21105;-82
2023/08/27 01:45:26;;;;;;;1.42;0.75;;;18.50;99.90;;;;;;1899510;75;21102;-82
2023/08/27 01:48:18;;;;;;;1.80;0.70;;;18.50;99.90;;;;;;1899340;75;21105;-82
2023/08/27 01:51:11;;;;;;;2.85;0.60;;;18.60;99.90;;;;;;1899280;75;21091;-82
2023/08/27 01:54:03;;;;;;;1.67;0.53;;;18.60;99.90;;;;;;1899373;75;21093;-82
2023/08/27 01:56:54;;;;;;;2.80;0.80;;;18.60;99.90;;;;;;1899275;75;21134;-82
2023/08/27 01:59:46;;;;;;;1.80;0.85;;;18.60;99.90;;;;;;1899161;75;21359;-82
2023/08/27 02:02:37;;;;;;;1.62;0.75;;;18.50;99.90;;;;;;1899051;75;21098;-82
2023/08/27 02:05:29;;;;;;;2.20;0.80;;;18.60;99.90;;;;;;1898918;75;21153;-82
2023/08/27 02:08:20;;;;;;;1.90;1.00;;;18.60;99.90;;;;;;1898937;75;21183;-82
2023/08/27 02:11:13;;;;;;;2.20;0.70;;;18.70;99.90;;;;;;1899396;75;21167;-81
2023/08/27 02:14:05;;;;;;;1.47;0.68;;;18.70;99.90;;;;;;1899563;75;21104;-81
2023/08/27 02:16:56;;;;;;;2.27;0.60;;;18.70;99.90;;;;;;1899651;75;21133;-82
2023/08/27 02:19:48;;;;;;;2.30;0.80;;;18.70;99.90;;;;;;1899502;75;21588;-82
2023/08/27 02:22:40;;;;;;;2.15;0.62;;;18.70;99.90;;;;;;1899521;75;21070;-81
2023/08/27 02:25:32;;;;;;;2.35;0.80;;;18.60;99.90;;;;;;1899638;75;21090;-82
2023/08/27 02:28:23;;;;;;;2.58;0.80;;;18.60;99.90;;;;;;1898934;75;21109;-82
2023/08/27 02:31:15;;;;;;;2.27;0.98;;;18.60;99.90;;;;;;1883790;76;21114;-81
2023/08/27 02:34:07;;;;;;;1.37;0.75;;;18.60;99.90;;;;;;1871715;77;21622;-81
2023/08/27 02:36:59;;;;;;;2.83;0.90;;;18.70;99.90;;;;;;1871906;77;21202;-82
2023/08/27 02:39:51;;;;;;;1.40;0.70;;;18.70;99.90;;;;;;1871897;77;21132;-82
2023/08/27 02:42:43;;;;;;;1.98;0.70;;;18.60;99.90;;;;;;1883816;76;21181;-81
2023/08/27 02:45:34;;;;;;;2.40;0.70;;;18.60;99.90;;;;;;1883723;76;21118;-82
2023/08/27 02:48:26;;;;;;;1.12;0.57;;;18.70;99.90;;;;;;1883624;76;21147;-82
2023/08/27 02:51:17;;;;;;;2.52;0.62;;;18.70;99.90;;;;;;1883768;76;21105;-82
2023/08/27 02:54:09;;;;;;;2.85;0.70;;;18.70;99.90;;;;;;1883689;76;21220;-82
2023/08/27 02:57:00;;;;;;;1.85;0.78;;;18.70;99.90;;;;;;1883281;76;21083;-82
2023/08/27 02:59:52;;;;;;;1.60;0.70;;;18.70;99.90;;;;;;1871918;77;21079;-82
2023/08/27 03:02:44;;;;;;;2.67;0.88;;;18.70;99.90;;;;;;1883701;76;21167;-82
2023/08/27 03:05:35;;;;;;;0.82;0.40;;;18.70;99.90;;;;;;1883509;76;21376;-81
2023/08/27 03:08:28;;;;;;;2.33;0.50;;;18.70;99.90;;;;;;1871985;77;21141;-82
2023/08/27 03:11:19;;;;;;;1.02;0.50;;;18.60;99.90;;;;;;1883783;76;21114;-82
2023/08/27 03:14:11;;;;;;;3.02;0.70;;;18.60;99.90;;;;;;1883774;76;21129;-81
2023/08/27 03:17:02;;;;;;;2.05;0.45;;;18.50;99.90;;;;;;1871834;77;21118;-82
2023/08/27 03:19:54;;;;;;;0.95;0.37;;;18.50;99.90;;;;;;1871910;77;21121;-82
2023/08/27 03:22:46;;;;;;;0.82;0.50;;;18.60;99.90;;;;;;1871577;77;21153;-82
2023/08/27 03:25:38;;;;;;;1.22;0.50;;;18.60;99.90;;;;;;1883622;76;21111;-82
2023/08/27 03:28:29;;;;;;;1.12;0.60;;;18.50;99.90;;;;;;1883631;76;21156;-82
2023/08/27 03:31:21;;;;;;;1.67;0.65;;;18.50;99.90;;;;;;1897982;75;21078;-82
2023/08/27 03:34:13;;;;;;;1.00;0.50;;;18.50;99.90;;;;;;1899147;75;21109;-82
2023/08/27 03:37:06;;;;;;;2.05;0.80;;;18.60;99.90;;;;;;1899430;75;21054;-82
2023/08/27 03:39:58;;;;;;;2.05;0.85;;;18.60;99.90;;;;;;1899576;75;21105;-82
2023/08/27 03:42:49;;;;;;;1.98;0.90;;;18.60;99.90;;;;;;1899615;75;21325;-82
2023/08/27 03:45:41;;;;;;;2.67;0.70;;;18.60;99.90;;;;;;1899428;75;21054;-82
2023/08/27 03:48:33;;;;;;;1.65;0.90;;;18.60;99.90;;;;;;1899410;75;21200;-82
2023/08/27 03:51:28;;;;;;;1.22;0.85;;;18.60;99.90;;;;;;1899710;75;21085;-82
2023/08/27 03:54:19;;;;;;;1.50;0.88;;;18.60;99.90;;;;;;1899677;75;21187;-82
2023/08/27 03:57:10;;;;;;;2.50;1.42;;;18.60;99.90;;;;;;1899450;75;21183;-82
2023/08/27 04:00:03;;;;;;;3.27;1.32;;;18.70;99.90;;;;;;1899560;75;21220;-82
2023/08/27 04:02:58;;;;;;;1.90;1.00;;;18.70;99.90;;;;;;1899621;75;21232;-82
2023/08/27 04:05:50;;;;;;;1.70;0.72;;;18.60;99.90;;;;;;1899658;75;21183;-82
2023/08/27 04:08:42;;;;;;;1.42;0.80;;;18.60;99.90;;;;;;1899583;75;21112;-82
2023/08/27 04:11:34;;;;;;;2.45;0.90;;;18.60;99.90;;;;;;1899592;75;21565;-82
2023/08/27 04:14:26;;;;;;;2.00;0.90;;;18.50;99.90;;;;;;1899481;75;21576;-82
2023/08/27 04:17:17;;;;;;;2.33;0.75;;;18.50;99.90;;;;;;1899528;75;21109;-82
2023/08/27 04:20:11;;;;;;;1.42;0.80;;;18.50;99.90;;;;;;1899508;75;21117;-82
2023/08/27 04:23:03;;;;;;;1.95;1.10;;;18.50;99.90;;;;;;1899483;75;21163;-82
2023/08/27 04:25:56;;;;;;;2.45;0.82;;;18.50;99.90;;;;;;1899521;75;21090;-82
2023/08/27 04:28:47;;;;;;;1.90;0.70;;;18.50;99.90;;;;;;1899582;75;21191;-81
2023/08/27 04:31:39;;;;;;;1.57;0.80;;;18.50;99.90;;;;;;1889494;75;21126;-82
2023/08/27 04:34:31;;;;;;;0.65;0.45;;;18.60;99.90;;;;;;1889870;75;21663;-82
2023/08/27 04:37:23;;;;;;;1.12;0.53;;;18.60;99.90;;;;;;1916523;75;21125;-82
2023/08/27 04:40:15;;;;;;;1.67;0.62;;;18.60;99.90;;;;;;1916472;75;21090;-82
2023/08/27 04:43:07;;;;;;;1.50;0.82;;;18.70;99.90;;;;;;1916402;75;21090;-82
2023/08/27 04:45:59;;;;;;;2.87;0.60;;;18.70;99.90;;;;;;1916305;75;21102;-82
2023/08/27 04:48:51;;;;;;;1.55;0.60;;;18.60;99.90;;;;;;1915990;75;21092;-82
2023/08/27 04:51:43;;;;;;;1.02;0.53;;;18.60;99.90;;;;;;1916236;75;21148;-82
2023/08/27 04:54:36;;;;;;;1.00;0.60;;;18.60;99.90;;;;;;1916358;75;21094;-82
2023/08/27 04:57:28;;;;;;;2.05;0.40;;;18.60;99.90;;;;;;1916487;75;21103;-82
2023/08/27 05:00:21;;;;;;;1.27;0.55;;;18.60;99.90;;;;;;1916685;75;21185;-82
2023/08/27 05:03:13;;;;;;;1.37;0.60;;;18.70;99.90;;;;;;1916665;75;21103;-82
2023/08/27 05:06:07;;;;;;;0.47;0.42;;;18.70;99.90;;;;;;1916693;75;21108;-82
2023/08/27 05:08:59;;;;;;;1.77;0.60;;;18.70;99.90;;;;;;1916678;75;21569;-82
2023/08/27 05:11:50;;;;;;;1.27;0.60;;;18.70;99.90;;;;;;1916566;75;21109;-82
2023/08/27 05:14:43;;;;;;;1.40;0.88;;;18.60;99.90;;;;;;1916633;75;21177;-82
2023/08/27 05:17:34;;;;;;;0.90;0.70;;;18.60;99.90;;;;;;1916171;75;21573;-82
2023/08/27 05:20:27;;;;;;;0.78;0.50;;;18.60;99.90;;;;;;1915837;75;21113;-82
2023/08/27 05:23:21;;;;;;;1.87;0.70;;;18.60;99.90;;;;;;1916375;75;21094;-82
2023/08/27 05:26:11;;;;;;;1.35;0.60;;;18.60;99.90;;;;;;1916396;75;21125;-82
2023/08/27 05:29:04;;;;;;;2.00;0.82;;;18.70;99.90;;;;;;1916202;75;21811;-82
2023/08/27 05:31:56;;;;;;;2.37;0.95;;;18.70;99.90;;;;;;1917360;74;21104;-81
2023/08/27 05:34:50;;;;;;;1.75;1.37;;;18.70;99.90;;;;;;1915975;75;21098;-81
2023/08/27 05:37:41;;;;;;;1.10;0.80;;;18.80;99.90;;;;;;1916083;75;21091;-81
2023/08/27 05:40:33;;;;;;;2.55;1.00;;;18.70;99.90;;;;;;1916613;75;21192;-81
2023/08/27 05:43:25;;;;;;;2.00;0.80;;;18.70;99.90;;;;;;1916554;75;21082;-81
2023/08/27 05:46:16;;;;;;;1.30;0.53;;;18.80;99.90;;;;;;1916821;75;21107;-81
2023/08/27 05:49:09;;;;;;;1.10;0.60;;;18.70;99.90;;;;;;1916505;75;21139;-81
2023/08/27 05:52:01;;;;;;;1.15;0.60;;;18.70;99.90;;;;;;1916177;75;21059;-81
2023/08/27 05:54:52;;;;;;;3.08;0.90;;;18.80;99.90;;;;;;1916079;75;21091;-81
2023/08/27 05:57:44;;;;;;;1.82;0.70;;;18.80;99.90;;;;;;1916642;75;21105;-83
2023/08/27 06:00:36;;;;;;;2.20;0.50;;;18.90;99.90;;;;;;1916650;75;21151;-81
2023/08/27 06:03:27;;;;;;;1.32;0.60;;;18.90;99.90;;;;;;1916497;75;21087;-82
2023/08/27 06:06:19;;;;;;;1.45;0.42;;;18.90;99.90;;;;;;1916614;75;21175;-81
2023/08/27 06:09:10;;;;;;;2.98;0.80;;;18.70;99.90;;;;;;1916408;75;21075;-82
2023/08/27 06:12:02;;;;;;;1.90;0.60;;;18.60;99.90;;;;;;1904337;75;21158;-82
2023/08/27 06:14:53;;;;;;;1.30;0.70;;;18.70;99.90;;;;;;1904280;75;21087;-81
2023/08/27 06:17:45;;;;;;;1.30;0.60;;;18.70;99.90;;;;;;1904157;75;21094;-81
2023/08/27 06:20:39;;;;;;;1.62;0.53;;;18.70;99.90;;;;;;1904190;75;21141;-81
2023/08/27 06:23:31;;;;;;;2.55;0.90;;;18.70;99.90;;;;;;1904364;75;21048;-81
2023/08/27 06:26:22;;;;;;;1.02;0.57;;;18.70;99.90;;;;;;1916849;75;21540;-81
2023/08/27 06:29:13;;;;;;;0.68;0.53;;;18.70;99.90;;;;;;1916825;75;21159;-81
2023/08/27 06:32:06;;;;;;;1.37;0.50;;;18.80;99.90;;;;;;1916666;75;21853;-81
2023/08/27 06:34:58;;;;;;;1.00;0.50;;;18.80;99.90;;;;;;1916559;75;21114;-81
2023/08/27 06:37:50;;;;;;;1.65;0.40;;;18.90;99.90;;;;;;1916654;75;21130;-82
2023/08/27 06:40:41;;;;;;;2.08;0.62;;;18.90;99.90;;;;;;1916585;75;21133;-82
2023/08/27 06:43:33;;;;;;;0.72;0.42;;;18.80;99.90;;;;;;1916545;75;21197;-82
2023/08/27 06:46:26;;;;;;;1.42;0.40;;;18.70;99.90;;;;;;1916818;75;21129;-82
2023/08/27 06:49:19;;;;;;;1.42;0.57;;;18.80;99.90;;;;;;1916643;75;21099;-82
2023/08/27 06:52:10;;;;;;;1.77;0.45;;;18.80;99.90;;;;;;1916675;75;21577;-82
2023/08/27 06:55:03;;;;;;;1.00;0.53;;;18.80;99.90;;;;;;1916629;75;21087;-82
2023/08/27 06:57:56;;;;;;;2.00;0.65;;;18.80;99.90;;;;;;1916761;75;21079;-82
2023/08/27 07:00:48;;;;;;;0.95;0.50;;;18.90;99.90;;;;;;1916589;75;21145;-82
2023/08/27 07:03:42;;;;;;;0.60;0.40;;;18.90;99.90;;;;;;1916260;75;21565;-82
2023/08/27 07:06:35;;;;;;;1.40;0.42;;;19.00;99.90;;;;;;1908574;75;21142;-82
2023/08/27 07:09:29;;;;;;;1.10;0.60;;;19.00;99.90;;;;;;1901523;75;21105;-82
2023/08/27 07:12:20;;;;;;;1.82;0.80;;;19.10;99.90;;;;;;1901577;75;21097;-82
2023/08/27 07:15:13;;;;;;;1.17;0.80;;;19.10;99.90;;;;;;1901623;75;21109;-82
2023/08/27 07:18:06;;;;;;;1.77;0.70;;;19.10;99.90;;;;;;1901318;75;21109;-82
2023/08/27 07:20:58;;;;;;;1.37;0.62;;;19.20;99.90;;;;;;1889136;76;21541;-82
2023/08/27 07:23:49;;;;;;;1.67;0.60;;;19.20;99.90;;;;;;1889245;76;21615;-82
2023/08/27 07:26:41;;;;;;;1.65;0.60;;;19.20;99.90;;;;;;1889509;76;21106;-82
2023/08/27 07:29:33;;;;;;;1.30;0.60;;;19.20;99.90;;;;;;1889574;76;21199;-82
2023/08/27 07:32:24;;;;;;;1.07;0.47;;;19.20;99.90;;;;;;1889519;76;21148;-82
2023/08/27 07:35:17;;;;;;;1.98;0.53;;;19.20;99.90;;;;;;1912152;75;21154;-82
2023/08/27 07:38:09;;;;;;;1.22;0.65;;;19.30;99.90;;;;;;1914661;75;21136;-82
2023/08/27 07:41:01;;;;;;;1.67;0.62;;;19.30;99.90;;;;;;1914820;75;21169;-82
2023/08/27 07:43:53;;;;;;;1.45;0.50;;;19.40;99.90;;;;;;1914609;75;21343;-82
2023/08/27 07:46:44;;;;;;;1.17;0.62;;;19.40;99.90;;;;;;1914649;75;21174;-82
2023/08/27 07:49:35;;;;;;;1.10;0.60;;;19.40;99.90;;;;;;1914539;75;21112;-82
2023/08/27 07:52:27;;;;;;;1.52;0.47;;;19.40;99.90;;;;;;1914437;75;21135;-82
2023/08/27 07:55:19;;;;;;;1.98;0.68;;;19.40;99.90;;;;;;1913957;75;21170;-82
2023/08/27 07:58:12;;;;;;;1.00;0.40;;;19.40;99.90;;;;;;1914530;75;21096;-82
2023/08/27 08:01:04;;;;;;;2.92;0.60;;;19.50;99.90;;;;;;1914537;75;21166;-82
2023/08/27 08:03:57;;;;;;;2.83;0.80;;;19.50;99.90;;;;;;1914599;75;21108;-82
2023/08/27 08:06:49;;;;;;;1.35;0.53;;;19.50;99.90;;;;;;1914755;75;21112;-82
2023/08/27 08:09:41;;;;;;;2.33;1.75;;;19.50;99.90;;;;;;1914594;75;21105;-83
2023/08/27 08:12:31;;;;;;;2.77;1.98;;;19.60;99.90;;;;;;1914409;75;21108;-83
2023/08/27 08:15:23;;;;;;;1.60;1.20;;;19.50;99.90;;;;;;1914727;75;21170;-83
2023/08/27 08:18:14;;;;;;;1.05;0.75;;;19.50;99.90;;;;;;1914307;75;21159;-82
2023/08/27 08:21:06;;;;;;;1.20;0.60;;;19.50;99.90;;;;;;1914291;75;21106;-82
2023/08/27 08:23:58;;;;;;;1.35;0.98;;;19.50;99.90;;;;;;1914398;75;21126;-82
2023/08/27 08:26:52;;;;;;;0.95;0.95;;;19.50;99.90;;;;;;1914684;75;21126;-83
2023/08/27 08:29:42;;;;;;;1.67;0.90;;;19.40;99.90;;;;;;1914445;75;21057;-82
2023/08/27 08:32:34;;;;;;;1.65;1.10;;;19.40;99.90;;;;;;1914662;75;21186;-82
2023/08/27 08:35:26;;;;;;;1.22;1.12;;;19.40;99.90;;;;;;1914709;75;21113;-82
2023/08/27 08:38:18;;;;;;;1.52;1.30;;;19.50;99.90;;;;;;1914826;75;21073;-82
2023/08/27 08:41:12;;;;;;;2.37;1.30;;;19.60;99.90;;;;;;1914729;75;21101;-82
2023/08/27 08:44:07;;;;;;;1.92;0.98;;;19.60;99.90;;;;;;1914517;75;21182;-82
2023/08/27 08:47:00;;;;;;;1.80;0.70;;;19.50;99.90;;;;;;1914812;75;21104;-82
2023/08/27 08:52:37;;;;;;;0.80;0.60;;;19.60;99.90;;;;;;1957854;72;22171;-82
2023/08/27 08:55:31;;;;;;;0.70;0.40;;;19.70;99.90;;;;;;1917266;75;21082;-82
2023/08/27 08:58:22;;;;;;;1.45;0.60;;;19.70;99.90;;;;;;1917212;75;21063;-82
2023/08/27 09:01:17;;;;;;;1.77;0.68;;;19.70;99.90;;;;;;1917253;75;21091;-82
2023/08/27 09:04:10;;;;;;;1.35;0.80;;;19.90;99.90;;;;;;1917135;75;21196;-82
2023/08/27 09:07:03;;;;;;;1.82;0.85;;;20.00;99.90;;;;;;1917298;75;21109;-82
2023/08/27 09:09:57;;;;;;;1.35;0.90;;;20.20;99.90;;;;;;1917268;75;21293;-82
2023/08/27 09:12:49;;;;;;;1.10;0.70;;;20.30;99.90;;;;;;1917337;75;21156;-82
2023/08/27 09:15:40;;;;;;;0.95;0.60;;;20.40;99.90;;;;;;1917062;75;21184;-82
2023/08/27 09:18:32;;;;;;;1.32;0.55;;;20.70;99.90;;;;;;1917158;75;21083;-82
2023/08/27 09:21:24;;;;;;;0.60;0.40;;;20.90;99.90;;;;;;1917166;75;21075;-82
2023/08/27 09:24:17;;;;;;;0.98;0.60;;;20.90;99.90;;;;;;1917255;75;21087;-82
2023/08/27 09:27:09;;;;;;;0.90;0.60;;;20.70;99.90;;;;;;1917346;75;21133;-81
2023/08/27 09:30:01;;;;;;;2.02;0.80;;;20.30;99.90;;;;;;1917371;75;21205;-82
2023/08/27 09:32:53;;;;;;;1.82;0.85;;;20.40;99.90;;;;;;1916835;75;21147;-82
2023/08/27 09:35:45;;;;;;;1.25;0.82;;;20.60;99.90;;;;;;1916649;75;21099;-82
2023/08/27 09:38:40;;;;;;;1.75;0.68;;;20.80;99.90;;;;;;1916594;75;21151;-82
2023/08/27 09:41:33;;;;;;;0.80;0.60;;;20.50;99.90;;;;;;1916938;75;21164;-82
2023/08/27 09:44:28;;;;;;;0.80;0.55;;;20.10;99.90;;;;;;1917042;75;21094;-83
2023/08/27 09:47:19;;;;;;;1.20;0.40;;;20.20;99.90;;;;;;1917186;75;21101;-83
2023/08/27 09:50:17;;;;;;;0.82;0.30;;;20.40;99.90;;;;;;1916919;75;21099;-83
2023/08/27 09:55:53;;;;;;;0.30;0.28;;;20.70;99.90;;;;;;1958164;72;22575;-82
2023/08/27 09:58:44;;;;;;;1.55;0.60;;;20.70;99.90;;;;;;1917614;75;21078;-83
2023/08/27 10:01:36;;;;;;;0.78;0.60;;;20.90;99.90;;;;;;1917335;75;21098;-83
2023/08/27 10:04:27;;;;;;;1.22;0.57;;;21.30;99.90;;;;;;1916959;75;21184;-83
2023/08/27 10:07:19;;;;;;;1.27;0.50;;;21.40;99.90;;;;;;1917004;75;21537;-83
2023/08/27 10:10:12;;;;;;;0.80;0.50;;;21.60;99.90;;;;;;1916902;75;21136;-82
2023/08/27 10:13:04;;;;;;;0.53;0.40;;;21.60;99.90;;;;;;1917167;75;21107;-83
2023/08/27 10:15:56;;;;;;;1.65;0.50;;;21.40;99.90;;;;;;1917048;75;21184;-82
2023/08/27 10:18:48;;;;;;;0.55;0.30;;;21.10;99.90;;;;;;1916725;75;21051;-82
2023/08/27 10:21:40;;;;;;;0.28;0.20;;;20.80;99.90;;;;;;1917030;75;21141;-84
2023/08/27 10:24:32;;;;;;;0.40;0.30;;;20.60;99.90;;;;;;1917099;75;21205;-83
2023/08/27 10:27:24;;;;;;;0.95;0.40;;;20.70;99.90;;;;;;1917222;75;21208;-83
2023/08/27 10:30:19;;;;;;;0.60;0.30;;;20.70;99.90;;;;;;1917076;75;21071;-84
2023/08/27 10:33:12;;;;;;;1.40;0.50;;;20.80;99.90;;;;;;1917141;75;21590;-82
2023/08/27 10:36:07;;;;;;;0.50;0.40;;;20.20;99.90;;;;;;1879748;75;21537;-82
2023/08/27 10:39:02;;;;;;;1.27;0.60;;;19.60;99.90;;;;;;1872018;77;21113;-82
2023/08/27 10:41:54;;;;;;;0.93;0.60;;;19.30;99.90;;;;;;1872183;77;21106;-83
2023/08/27 10:45:08;;;;;;;1.05;0.60;;;19.00;99.90;;;;;;1872256;77;21107;-84
2023/08/27 10:48:10;;;;;;;1.55;0.70;;;19.20;99.90;;;;;;1872156;77;21149;-82
2023/08/27 10:51:21;;;;;;;0.82;0.70;;;18.90;99.90;;;;;;1871980;77;21113;-83
2023/08/27 10:54:16;;;;;;;2.35;0.70;;;18.90;99.90;;;;;;1871856;77;21065;-82
2023/08/27 10:57:20;;;;;;;1.00;0.72;;;18.90;99.90;;;;;;1871909;77;21173;-81
2023/08/27 11:00:16;;;;;;;4.03;0.75;;;18.90;99.90;;;;;;1871091;76;21567;-84
2023/08/27 11:03:18;;;;;;;0.85;0.62;;;18.80;99.90;;;;;;1871436;77;21134;-84
2023/08/27 11:06:14;;;;;;;1.02;0.70;;;18.90;99.90;;;;;;1871566;77;22128;-82
2023/08/27 11:09:18;;;;;;;2.58;0.70;;;18.80;99.90;;;;;;1871098;77;21134;-83
2023/08/27 11:12:18;;;;;;;1.25;0.50;;;18.60;99.90;;;;;;1871311;77;21121;-83
2023/08/27 11:15:16;;;;;;;1.10;0.60;;;18.50;99.90;;;;;;1871409;77;21199;-83
2023/08/27 11:18:23;;;;;;;0.78;0.53;;;18.60;99.90;;;;;;1871076;77;21057;-82
2023/08/27 11:21:23;;;;;;;1.07;0.70;;;18.60;99.90;;;;;;1870900;77;21179;-83
2023/08/27 11:24:21;;;;;;;0.75;0.72;;;18.50;99.90;;;;;;1870716;77;21116;-83
2023/08/27 11:27:13;;;;;;;1.10;0.80;;;18.30;99.90;;;;;;1870857;77;21140;-82
2023/08/27 11:30:07;;;;;;;0.80;0.57;;;18.40;99.90;;;;;;1871110;77;21129;-82
2023/08/27 11:32:59;;;;;;;0.75;0.50;;;18.40;99.90;;;;;;1871004;77;21090;-82
2023/08/27 11:35:50;;;;;;;1.35;0.70;;;18.40;99.90;;;;;;1903788;75;21634;-83
2023/08/27 11:38:42;;;;;;;0.75;0.50;;;18.50;99.90;;;;;;1915701;75;21510;-84
2023/08/27 11:41:37;;;;;;;0.55;0.50;;;18.50;99.90;;;;;;1915791;75;21106;-84
2023/08/27 11:44:29;;;;;;;0.80;0.45;;;18.30;99.90;;;;;;1916153;75;21056;-84
2023/08/27 11:47:22;;;;;;;1.52;0.60;;;18.20;99.90;;;;;;1916144;75;21098;-84
2023/08/27 11:50:14;;;;;;;0.88;0.40;;;18.30;99.90;;;;;;1916009;75;21062;-83
2023/08/27 11:53:06;;;;;;;0.60;0.60;;;18.30;99.90;;;;;;1916053;75;21109;-84
2023/08/27 11:55:58;;;;;;;1.00;0.60;;;18.20;99.90;;;;;;1915921;74;21078;-82
2023/08/27 11:58:53;;;;;;;1.10;0.55;;;18.30;99.90;;;;;;1916184;75;21586;-83
2023/08/27 12:01:46;;;;;;;0.40;0.40;;;18.30;99.90;;;;;;1916029;75;21126;-84
2023/08/27 12:04:37;;;;;;;0.95;0.47;;;18.40;99.90;;;;;;1915739;75;21168;-84
2023/08/27 12:07:29;;;;;;;0.50;0.50;;;18.50;99.90;;;;;;1916320;75;21156;-84
2023/08/27 12:10:22;;;;;;;0.60;0.50;;;18.50;99.90;;;;;;1916440;75;21175;-82
2023/08/27 12:13:15;;;;;;;1.10;0.70;;;18.60;99.90;;;;;;1916496;75;21098;-84
2023/08/27 12:16:07;;;;;;;0.90;0.50;;;18.70;99.90;;;;;;1916590;75;21051;-82
2023/08/27 12:19:05;;;;;;;1.00;0.62;;;18.80;99.90;;;;;;1916521;75;21507;-83
2023/08/27 12:24:41;;;;;;;1.75;0.90;;;18.90;99.90;;;;;;1957657;72;22210;-81
2023/08/27 12:27:33;;;;;;;1.95;0.72;;;18.90;99.90;;;;;;1917243;75;21102;-83
2023/08/27 12:30:24;;;;;;;0.60;0.60;;;18.70;99.90;;;;;;1917262;75;21152;-82
2023/08/27 12:33:16;;;;;;;1.50;0.70;;;18.70;99.90;;;;;;1917216;75;21145;-83
2023/08/27 12:36:08;;;;;;;1.52;0.80;;;18.70;99.90;;;;;;1917087;75;21490;-84
2023/08/27 12:39:00;;;;;;;1.72;0.70;;;18.70;99.90;;;;;;1917139;75;21200;-82
2023/08/27 12:41:51;;;;;;;1.07;0.65;;;18.70;99.90;;;;;;1917233;75;21131;-83
2023/08/27 12:44:44;;;;;;;2.05;0.98;;;18.60;99.90;;;;;;1917278;75;21047;-83
2023/08/27 12:47:37;;;;;;;1.05;0.70;;;18.60;99.90;;;;;;1917122;75;21192;-83
2023/08/27 12:50:29;;;;;;;1.72;0.70;;;18.60;99.90;;;;;;1916875;75;21173;-82
2023/08/27 12:53:20;;;;;;;1.27;0.65;;;18.50;99.90;;;;;;1917105;75;21109;-81
2023/08/27 12:56:12;;;;;;;0.62;0.50;;;18.40;99.90;;;;;;1917160;75;21110;-82
2023/08/27 12:59:04;;;;;;;1.37;0.65;;;18.60;99.90;;;;;;1917244;75;21119;-82
2023/08/27 13:01:56;;;;;;;0.78;0.70;;;18.40;99.90;;;;;;1917272;75;21205;-82
2023/08/27 13:04:50;;;;;;;1.10;0.62;;;18.40;99.90;;;;;;1917159;75;21158;-81
2023/08/27 13:07:41;;;;;;;0.93;0.42;;;18.50;99.90;;;;;;1915199;75;21159;-83
2023/08/27 13:10:33;;;;;;;1.60;0.70;;;18.50;99.90;;;;;;1915317;75;21137;-81
2023/08/27 13:13:25;;;;;;;0.70;0.60;;;18.40;99.90;;;;;;1915258;75;21376;-83
2023/08/27 13:16:17;;;;;;;0.90;0.60;;;18.40;99.90;;;;;;1915502;75;21204;-82
2023/08/27 13:19:15;;;;;;;2.40;0.85;;;18.40;99.90;;;;;;1915207;75;21099;-83
2023/08/27 13:22:08;;;;;;;1.65;0.90;;;18.50;99.90;;;;;;1914599;75;21079;-82
2023/08/27 13:24:59;;;;;;;1.52;0.62;;;18.60;99.90;;;;;;1905960;75;21204;-83
2023/08/27 13:27:51;;;;;;;1.25;0.60;;;18.70;99.90;;;;;;1915254;75;21173;-83
2023/08/27 13:30:43;;;;;;;0.80;0.80;;;18.70;99.90;;;;;;1915231;75;21121;-82
2023/08/27 13:33:34;;;;;;;0.98;0.70;;;18.70;99.90;;;;;;1914997;75;21106;-83
2023/08/27 13:36:26;;;;;;;0.72;0.60;;;18.70;99.90;;;;;;1914258;75;21133;-82
2023/08/27 13:39:17;;;;;;;1.17;0.70;;;18.70;99.90;;;;;;1914235;75;21129;-82
2023/08/27 13:42:09;;;;;;;0.93;0.70;;;18.70;99.90;;;;;;1914508;75;21168;-82
2023/08/27 13:45:02;;;;;;;1.57;1.00;;;18.70;99.90;;;;;;1902346;75;21143;-84
2023/08/27 13:47:54;;;;;;;0.80;0.70;;;18.80;99.90;;;;;;1902068;75;21406;-81
2023/08/27 13:50:46;;;;;;;0.98;0.72;;;18.60;99.90;;;;;;1902256;75;21106;-82
2023/08/27 13:53:37;;;;;;;0.57;0.40;;;18.50;99.90;;;;;;1914512;75;21110;-82
2023/08/27 13:56:29;;;;;;;3.33;0.80;;;18.50;99.90;;;;;;1914716;75;21465;-83
2023/08/27 13:59:20;;;;;;;0.68;0.50;;;18.40;99.90;;;;;;1902359;75;21641;-84
2023/08/27 14:02:12;;;;;;;0.75;0.68;;;18.30;99.90;;;;;;1902416;75;21121;-82
2023/08/27 14:05:04;;;;;;;1.75;0.85;;;18.10;99.90;;;;;;1902263;75;21102;-81
2023/08/27 14:07:56;;;;;;;1.25;0.50;;;18.10;99.90;;;;;;1902359;75;21118;-80
2023/08/27 14:10:47;;;;;;;0.62;0.47;;;18.30;99.90;;;;;;1902258;75;21124;-83
2023/08/27 14:13:44;;;;;;;0.98;0.50;;;18.20;99.90;;;;;;1902212;75;21554;-83
2023/08/27 14:16:31;;;;;;;1.52;0.57;;;18.30;99.90;;;;;;1914723;75;21111;-83
2023/08/27 14:19:23;;;;;;;1.87;0.60;;;18.40;99.90;;;;;;1914152;75;21091;-81
2023/08/27 14:22:14;;;;;;;0.60;0.28;;;18.50;99.90;;;;;;1914567;75;21110;-82
2023/08/27 14:25:08;;;;;;;1.00;0.50;;;18.60;99.90;;;;;;1912097;74;21142;-80
2023/08/27 14:28:04;;;;;;;0.82;0.50;;;18.60;99.90;;;;;;1909312;75;21411;-83
2023/08/27 14:30:57;;;;;;;0.70;0.47;;;18.70;99.90;;;;;;1909615;75;21098;-81
2023/08/27 14:33:56;;;;;;;1.80;0.68;;;18.80;99.90;;;;;;1909298;75;21113;-82
2023/08/27 14:36:50;;;;;;;0.85;0.57;;;18.80;99.90;;;;;;1876798;76;21131;-82
2023/08/27 14:39:42;;;;;;;1.35;0.50;;;18.80;99.90;;;;;;1818558;79;21697;-81
2023/08/27 14:42:36;;;;;;;1.75;0.57;;;18.80;99.90;;;;;;1818748;79;21116;-81
2023/08/27 14:45:32;;;;;;;1.50;0.60;;;18.80;99.90;;;;;;1867884;77;21117;-81
2023/08/27 14:48:26;;;;;;;3.53;0.60;;;18.70;99.90;;;;;;1868215;77;21122;-81
2023/08/27 14:51:19;;;;;;;0.50;0.50;;;18.70;99.90;;;;;;1868140;77;21066;-81
2023/08/27 14:54:13;;;;;;;0.70;0.30;;;18.80;99.90;;;;;;1868053;77;21109;-82
2023/08/27 14:57:08;;;;;;;0.85;0.50;;;18.80;99.90;;;;;;1868277;77;21147;-82
2023/08/27 15:00:09;;;;;;;1.25;0.50;;;18.90;99.90;;;;;;1843903;77;21188;-81
2023/08/27 15:03:07;;;;;;;0.72;0.40;;;18.90;99.90;;;;;;1867805;77;21223;-82
2023/08/27 15:06:00;;;;;;;0.78;0.30;;;18.90;99.90;;;;;;1868148;77;21155;-83
2023/08/27 15:08:55;;;;;;;0.85;0.50;;;18.80;99.90;;;;;;1820289;77;21631;-84